createdAt,value
2023-05-20T00:00:22.366Z,83.00033
2023-05-20T00:05:23.878Z,84.84132
2023-05-20T00:10:25.525Z,88.00398
2023-05-20T00:15:26.838Z,87.42047
2023-05-20T00:20:28.429Z,90.02641
2023-05-20T00:25:29.970Z,85.64675
2023-05-20T00:30:31.292Z,87.37654
2023-05-20T00:35:32.771Z,87.8359
2023-05-20T00:40:34.119Z,85.49257
2023-05-20T00:45:35.764Z,88.34758
2023-05-20T00:50:37.272Z,87.71203
2023-05-20T00:55:38.769Z,88.79429
2023-05-20T01:00:40.181Z,88.84334
2023-05-20T01:05:42.524Z,88.03884
2023-05-20T01:10:43.994Z,86.38791
2023-05-20T01:15:46.135Z,86.78642
2023-05-20T01:20:48.857Z,86.47474
2023-05-20T01:25:50.301Z,87.68297
2023-05-20T01:30:51.546Z,83.89612
2023-05-20T01:35:52.793Z,85.68812
2023-05-20T01:40:54.153Z,85.81791
2023-05-20T01:45:55.627Z,84.84181
2023-05-20T01:50:57.319Z,85.70446
2023-05-20T01:55:58.920Z,85.73263
2023-05-20T02:01:00.571Z,86.21323
2023-05-20T02:06:02.065Z,87.28829
2023-05-20T02:11:03.492Z,87.33076
2023-05-20T02:16:05.155Z,88.47895
2023-05-20T02:21:06.479Z,88.43331
2023-05-20T02:26:08.129Z,88.46829
2023-05-20T02:31:09.442Z,85.319
2023-05-20T02:36:11.305Z,87.66814
2023-05-20T02:41:13.085Z,87.05701
2023-05-20T02:46:14.862Z,86.58636
2023-05-20T02:51:16.538Z,86.73865
2023-05-20T02:56:18.077Z,86.52159
2023-05-20T03:01:19.715Z,84.42843
2023-05-20T03:06:20.992Z,84.56186
2023-05-20T03:11:22.303Z,88.13678
2023-05-20T03:16:23.636Z,88.99017
2023-05-20T03:21:24.910Z,88.18264
2023-05-20T03:26:26.328Z,89.26894
2023-05-20T03:31:27.647Z,90.2421
2023-05-20T03:36:28.958Z,87.60007
2023-05-20T03:41:30.227Z,88.26271
2023-05-20T03:46:31.682Z,97.47252
2023-05-20T03:51:32.987Z,91.47922
2023-05-20T03:56:34.364Z,90.14357
2023-05-20T04:01:35.688Z,92.86212
2023-05-20T04:06:37.014Z,92.89242
2023-05-20T04:11:38.418Z,92.45831
2023-05-20T04:16:39.716Z,90.90148
2023-05-20T04:21:41.097Z,92.90549
2023-05-20T04:26:42.386Z,88.8771
2023-05-20T04:31:43.669Z,89.15631
2023-05-20T04:36:44.953Z,89.93838
2023-05-20T04:41:46.534Z,90.33574
2023-05-20T04:46:48.159Z,90.63462
2023-05-20T04:51:49.764Z,92.64219
2023-05-20T04:56:51.352Z,90.88632
2023-05-20T05:01:53.205Z,89.30533
2023-05-20T05:06:54.934Z,88.53409
2023-05-20T05:11:56.520Z,91.27793
2023-05-20T05:16:58.159Z,94.05787
2023-05-20T05:21:59.704Z,89.61619
2023-05-20T05:27:01.460Z,88.02944
2023-05-20T05:32:02.798Z,87.88753
2023-05-20T05:37:04.180Z,88.12789
2023-05-20T05:42:05.930Z,86.61212
2023-05-20T05:47:07.524Z,89.59774
2023-05-20T05:52:08.906Z,92.20727
2023-05-20T05:57:10.370Z,90.6624
2023-05-20T06:02:11.826Z,86.96218
2023-05-20T06:07:13.117Z,87.6561
2023-05-20T06:12:14.734Z,90.20191
2023-05-20T06:17:16.243Z,89.66149
2023-05-20T06:22:17.530Z,88.82653
2023-05-20T06:27:19.143Z,85.14752
2023-05-20T06:32:20.601Z,88.52951
2023-05-20T06:37:22.199Z,82.4736
2023-05-20T06:42:23.804Z,85.16124
2023-05-20T06:47:25.630Z,82.5189
2023-05-20T06:52:26.903Z,78.30549
2023-05-20T06:57:28.643Z,75.27497
2023-05-20T07:02:30.586Z,75.5669
2023-05-20T07:07:32.412Z,72.56914
2023-05-20T07:12:36.031Z,67.64971
2023-05-20T07:17:38.501Z,67.39792
2023-05-20T07:22:40.163Z,67.78715
2023-05-20T07:27:41.742Z,65.10344
2023-05-20T07:32:43.261Z,66.12082
2023-05-20T07:37:44.736Z,63.34718
2023-05-20T07:42:46.126Z,62.55799
2023-05-20T07:47:47.951Z,60.57295
2023-05-20T07:52:56.416Z,58.46751
2023-05-20T07:57:58.644Z,57.50248
2023-05-20T08:03:00.534Z,57.44849
2023-05-20T08:08:02.613Z,58.56705
2023-05-20T08:13:04.272Z,55.30044
2023-05-20T08:18:06.096Z,57.5652
2023-05-20T08:23:07.935Z,55.57681
2023-05-20T08:28:09.560Z,52.99511
2023-05-20T08:33:11.248Z,53.04273
2023-05-20T08:38:13.069Z,52.77005
2023-05-20T08:43:14.683Z,49.75446
2023-05-20T08:48:16.326Z,48.41929
2023-05-20T08:53:18.252Z,43.8051
2023-05-20T08:58:19.906Z,41.29637
2023-05-20T09:03:21.537Z,40.32501
2023-05-20T09:08:23.240Z,36.58694
2023-05-20T09:13:25.155Z,37.42967
2023-05-20T09:18:26.743Z,36.3719
2023-05-20T09:23:28.471Z,39.93956
2023-05-20T09:28:30.118Z,37.62548
2023-05-20T09:33:31.879Z,39.28278
2023-05-20T09:38:33.909Z,38.13676
2023-05-20T09:43:35.806Z,37.72283
2023-05-20T09:48:37.553Z,36.41395
2023-05-20T09:53:39.151Z,36.3771
2023-05-20T09:58:40.753Z,38.26512
2023-05-20T10:03:44.307Z,36.95056
2023-05-20T10:08:46.003Z,36.44017
2023-05-20T10:13:47.330Z,39.28003
2023-05-20T10:18:48.631Z,36.60872
2023-05-20T10:23:50.035Z,36.17134
2023-05-20T10:28:51.360Z,36.36109
2023-05-20T10:33:52.775Z,34.78223
2023-05-20T10:38:54.230Z,34.21026
2023-05-20T10:43:55.795Z,33.29032
2023-05-20T10:48:57.265Z,34.3456
2023-05-20T10:53:58.968Z,31.81163
2023-05-20T10:59:00.646Z,33.021
2023-05-20T11:04:02.469Z,31.94409
2023-05-20T11:09:03.964Z,31.28466
2023-05-20T11:14:05.535Z,31.34585
2023-05-20T11:19:07.099Z,33.12442
2023-05-20T11:24:08.770Z,32.69089
2023-05-20T11:29:10.438Z,30.05221
2023-05-20T11:34:12.003Z,30.11738
2023-05-20T11:39:13.625Z,27.81435
2023-05-20T11:44:15.207Z,25.7707
2023-05-20T11:49:16.847Z,26.6027
2023-05-20T11:54:18.358Z,28.73178
2023-05-20T11:59:19.866Z,27.84473
2023-05-20T12:04:21.464Z,28.36729
2023-05-20T12:09:23.076Z,28.23028
2023-05-20T12:14:24.772Z,28.13378
2023-05-20T12:19:26.244Z,27.23258
2023-05-20T12:24:30.032Z,27.38532
2023-05-20T12:29:32.082Z,27.65896
2023-05-20T12:34:33.702Z,29.08736
2023-05-20T12:39:35.300Z,28.76021
2023-05-20T12:44:37.155Z,27.42793
2023-05-20T12:49:38.729Z,28.55824
2023-05-20T12:54:45.784Z,27.90269
2023-05-20T12:59:47.617Z,27.8645
2023-05-20T13:04:48.929Z,27.20374
2023-05-20T13:09:50.272Z,26.65199
2023-05-20T13:14:51.630Z,27.34404
2023-05-20T13:19:53.130Z,27.48854
2023-05-20T13:24:54.460Z,25.56147
2023-05-20T13:29:55.859Z,28.12662
2023-05-20T13:34:57.488Z,28.04033
2023-05-20T13:39:58.857Z,27.33328
2023-05-20T13:45:00.254Z,26.82446
2023-05-20T13:50:03.242Z,26.21747
2023-05-20T13:55:05.284Z,27.00564
2023-05-20T14:00:06.736Z,27.13913
2023-05-20T14:05:07.999Z,28.1086
2023-05-20T14:10:09.770Z,28.0027
2023-05-20T14:15:11.227Z,27.47393
2023-05-20T14:20:12.530Z,26.21052
2023-05-20T14:25:13.834Z,25.46288
2023-05-20T14:30:15.305Z,24.94851
2023-05-20T14:35:16.548Z,24.41345
2023-05-20T14:40:18.005Z,24.52081
2023-05-20T14:45:19.271Z,24.12092
2023-05-20T14:50:20.509Z,25.16607
2023-05-20T14:55:21.821Z,26.05206
2023-05-20T15:00:23.156Z,26.46066
2023-05-20T15:05:24.424Z,26.33123
2023-05-20T15:10:25.793Z,27.29618
2023-05-20T15:15:27.114Z,28.35491
2023-05-20T15:20:28.399Z,29.52157
2023-05-20T15:25:29.669Z,30.27095
2023-05-20T15:30:31.279Z,32.01231
2023-05-20T15:35:32.585Z,33.38767
2023-05-20T15:40:34.298Z,33.81406
2023-05-20T15:45:35.697Z,35.14168
2023-05-20T15:50:37.203Z,34.75377
2023-05-20T15:55:38.703Z,34.92236
2023-05-20T16:00:40.013Z,36.91378
2023-05-20T16:05:41.286Z,35.82218
2023-05-20T16:10:42.592Z,34.03931
2023-05-20T16:15:43.916Z,34.1037
2023-05-20T16:20:45.221Z,34.02981
2023-05-20T16:25:46.480Z,35.03425
2023-05-20T16:30:47.779Z,34.52741
2023-05-20T16:35:49.100Z,34.59003
2023-05-20T16:40:50.835Z,35.49896
2023-05-20T16:45:52.155Z,35.6607
2023-05-20T16:50:53.446Z,36.10863
2023-05-20T16:55:54.709Z,34.92508
2023-05-20T17:00:56.033Z,35.79617
2023-05-20T17:05:57.407Z,36.84236
2023-05-20T17:10:58.796Z,38.28527
2023-05-20T17:16:00.421Z,37.92945
2023-05-20T17:21:01.687Z,38.25621
2023-05-20T17:26:03.002Z,37.74079
2023-05-20T17:31:04.321Z,39.80676
2023-05-20T17:36:05.676Z,38.1142
2023-05-20T17:41:07.274Z,37.66836
2023-05-20T17:46:08.957Z,37.49668
2023-05-20T17:51:10.363Z,38.10203
2023-05-20T17:56:11.675Z,38.21644
2023-05-20T18:01:12.990Z,37.75054
2023-05-20T18:06:14.304Z,38.58502
2023-05-20T18:11:15.598Z,38.47073
2023-05-20T18:16:17.124Z,38.63482
2023-05-20T18:21:18.587Z,39.22515
2023-05-20T18:26:20.140Z,39.74476
2023-05-20T18:31:21.509Z,40.89709
2023-05-20T18:36:22.891Z,43.9402
2023-05-20T18:41:27.240Z,47.45787
2023-05-20T18:46:37.310Z,47.13741
2023-05-20T18:51:38.828Z,50.15096
2023-05-20T18:56:40.463Z,52.28052
2023-05-20T19:01:42.003Z,52.73914
2023-05-20T19:06:43.670Z,57.46648
2023-05-20T19:11:45.227Z,56.72045
2023-05-20T19:16:46.644Z,57.2598
2023-05-20T19:21:48.066Z,58.05119
2023-05-20T19:26:49.424Z,58.51068
2023-05-20T19:31:51.084Z,60.47486
2023-05-20T19:36:52.396Z,60.23701
2023-05-20T19:41:54.435Z,56.89055
2023-05-20T19:46:55.907Z,59.61444
2023-05-20T19:51:57.606Z,57.96959
2023-05-20T19:56:59.281Z,59.07326
2023-05-20T20:02:01.128Z,59.64376
2023-05-20T20:07:02.832Z,58.10942
2023-05-20T20:12:04.445Z,57.90506
2023-05-20T20:17:06.073Z,60.82529
2023-05-20T20:22:07.765Z,63.32602
2023-05-20T20:27:09.656Z,65.15239
2023-05-20T20:32:11.329Z,64.9495
2023-05-20T20:37:12.983Z,62.83081
2023-05-20T20:42:14.624Z,64.75813
2023-05-20T20:47:16.407Z,69.47256
2023-05-20T20:52:17.985Z,66.44508
2023-05-20T20:57:19.626Z,67.94489
2023-05-20T21:02:21.380Z,68.31899
2023-05-20T21:07:23.046Z,69.41999
2023-05-20T21:12:24.337Z,68.72462
2023-05-20T21:17:26.191Z,68.6953
2023-05-20T21:22:27.807Z,68.82909
2023-05-20T21:27:29.553Z,67.7969
2023-05-20T21:32:31.358Z,66.3378
2023-05-20T21:37:32.939Z,66.56485
2023-05-20T21:42:34.509Z,65.51824
2023-05-20T21:47:36.281Z,65.95781
2023-05-20T21:52:37.914Z,65.57253
2023-05-20T21:57:39.518Z,66.80653
2023-05-20T22:02:41.442Z,67.13517
2023-05-20T22:07:43.021Z,66.88806
2023-05-20T22:12:44.585Z,69.68424
2023-05-20T22:17:46.619Z,69.00825
2023-05-20T22:22:47.965Z,70.2207
2023-05-20T22:27:49.439Z,69.02951
2023-05-20T22:32:50.875Z,71.10432
2023-05-20T22:37:52.152Z,72.90664
2023-05-20T22:42:53.477Z,74.59685
2023-05-20T22:47:54.808Z,76.08139
2023-05-20T22:52:56.372Z,73.9028
2023-05-20T22:57:57.977Z,74.88123
2023-05-20T23:02:59.664Z,75.93714
2023-05-20T23:08:01.172Z,76.49386
2023-05-20T23:13:02.846Z,78.83601
2023-05-20T23:18:04.435Z,74.70239
2023-05-20T23:23:11.318Z,76.11872
2023-05-20T23:28:13.369Z,76.77333
2023-05-20T23:33:15.330Z,79.05841
2023-05-20T23:38:16.968Z,80.39313
2023-05-20T23:43:18.572Z,80.28026
2023-05-20T23:48:20.454Z,81.69894
2023-05-20T23:53:22.044Z,77.37203
2023-05-20T23:58:23.713Z,80.18548
